createdAt,value
2022-09-18T00:00:16.869Z,85917.40
2022-09-18T00:02:47.206Z,85917.60
2022-09-18T00:05:16.540Z,85915.40
2022-09-18T00:07:45.823Z,85919.00
2022-09-18T00:10:15.072Z,85922.00
2022-09-18T00:12:44.418Z,85917.40
2022-09-18T00:15:13.644Z,85917.40
2022-09-18T00:17:43.230Z,85917.20
2022-09-18T00:20:12.789Z,85921.20
2022-09-18T00:22:42.385Z,85921.20
2022-09-18T00:25:12.520Z,85931.60
2022-09-18T00:27:41.741Z,85928.80
2022-09-18T00:30:11.850Z,85926.40
2022-09-18T00:32:41.150Z,85927.20
2022-09-18T00:35:10.850Z,85928.00
2022-09-18T00:37:40.000Z,85928.60
2022-09-18T00:40:10.103Z,85928.00
2022-09-18T00:42:39.779Z,85930.40
2022-09-18T00:45:11.654Z,85932.40
2022-09-18T00:47:51.617Z,85930.60
2022-09-18T00:50:28.533Z,85933.60
2022-09-18T00:53:07.036Z,85934.00
2022-09-18T00:55:43.724Z,85944.80
2022-09-18T00:58:13.848Z,85948.00
2022-09-18T01:00:43.373Z,85948.20
2022-09-18T01:03:13.217Z,85948.00
2022-09-18T01:06:24.684Z,85950.00
2022-09-18T01:09:34.928Z,85949.60
2022-09-18T01:12:29.371Z,85956.20
2022-09-18T01:15:07.184Z,85958.40
2022-09-18T01:17:57.715Z,85957.40
2022-09-18T01:21:14.423Z,85966.20
2022-09-18T01:24:11.421Z,85969.40
2022-09-18T01:26:59.087Z,85970.40
2022-09-18T01:29:41.910Z,85977.20
2022-09-18T01:32:26.467Z,85979.20
2022-09-18T01:35:42.229Z,85981.60
2022-09-18T01:38:44.426Z,85986.60
2022-09-18T01:41:29.449Z,85984.40
2022-09-18T01:44:30.422Z,85984.00
2022-09-18T01:47:04.413Z,85988.00
2022-09-18T01:49:43.668Z,85988.00
2022-09-18T01:52:18.373Z,85992.00
2022-09-18T01:54:52.814Z,85994.20
2022-09-18T01:57:42.710Z,85998.40
2022-09-18T02:00:16.059Z,85995.60
2022-09-18T02:03:03.259Z,85999.60
2022-09-18T02:05:56.133Z,86000.20
2022-09-18T02:08:32.421Z,86002.20
2022-09-18T02:11:15.975Z,86004.60
2022-09-18T02:13:53.102Z,86005.20
2022-09-18T02:16:49.526Z,86007.60
2022-09-18T02:19:38.588Z,86010.40
2022-09-18T02:22:17.938Z,86015.80
2022-09-18T02:24:50.527Z,86017.80
2022-09-18T02:27:21.765Z,86016.40
2022-09-18T02:29:52.930Z,86015.60
2022-09-18T02:32:22.327Z,86023.20
2022-09-18T02:34:51.798Z,86024.20
2022-09-18T02:38:00.988Z,86021.40
2022-09-18T02:41:09.083Z,86024.40
2022-09-18T02:44:10.363Z,86024.00
2022-09-18T02:46:57.274Z,86023.80
2022-09-18T02:50:13.886Z,86030.20
2022-09-18T02:53:13.074Z,86034.60
2022-09-18T02:55:55.457Z,86033.20
2022-09-18T02:58:46.509Z,86034.60
2022-09-18T03:01:19.157Z,86040.60
2022-09-18T03:03:49.797Z,86042.20
2022-09-18T03:06:19.206Z,86047.00
2022-09-18T03:08:48.553Z,86049.00
2022-09-18T03:11:17.838Z,86050.80
2022-09-18T03:13:46.890Z,86051.00
2022-09-18T03:16:16.605Z,86052.00
2022-09-18T03:18:46.216Z,86053.00
2022-09-18T03:21:15.679Z,86056.00
2022-09-18T03:23:45.805Z,86062.80
2022-09-18T03:26:15.383Z,86057.80
2022-09-18T03:28:45.336Z,86060.60
2022-09-18T03:31:15.130Z,86067.60
2022-09-18T03:33:44.544Z,86065.20
2022-09-18T03:36:13.628Z,86068.60
2022-09-18T03:38:43.636Z,86072.40
2022-09-18T03:41:12.932Z,86068.60
2022-09-18T03:43:42.907Z,86073.40
2022-09-18T03:46:12.209Z,86074.60
2022-09-18T03:48:41.861Z,86069.60
2022-09-18T03:51:11.122Z,86072.20
2022-09-18T03:53:40.309Z,86073.80
2022-09-18T03:56:09.858Z,86073.00
2022-09-18T03:58:39.427Z,86074.40
2022-09-18T04:01:09.347Z,86080.20
2022-09-18T04:03:38.987Z,86081.60
2022-09-18T04:06:08.852Z,86083.00
2022-09-18T04:08:39.576Z,86086.40
2022-09-18T04:11:09.202Z,86086.20
2022-09-18T04:13:38.085Z,86090.60
2022-09-18T04:16:08.123Z,86085.60
2022-09-18T04:18:37.538Z,86090.40
2022-09-18T04:21:06.862Z,86092.80
2022-09-18T04:23:35.951Z,86096.20
2022-09-18T04:26:10.044Z,86089.20
2022-09-18T04:28:40.042Z,86096.00
2022-09-18T04:31:09.560Z,86093.40
2022-09-18T04:33:38.817Z,86097.20
2022-09-18T04:36:08.318Z,86098.80
2022-09-18T04:38:40.521Z,86099.60
2022-09-18T04:41:09.781Z,86096.60
2022-09-18T04:43:38.780Z,86097.60
2022-09-18T04:46:11.065Z,86105.20
2022-09-18T04:48:40.506Z,86103.80
2022-09-18T04:51:10.639Z,86103.60
2022-09-18T04:53:40.537Z,86102.80
2022-09-18T04:56:10.111Z,86103.60
2022-09-18T04:58:42.163Z,86103.20
2022-09-18T05:01:11.415Z,86101.80
2022-09-18T05:03:40.752Z,86104.20
2022-09-18T05:06:10.182Z,86104.80
2022-09-18T05:08:39.664Z,86109.80
2022-09-18T05:11:08.751Z,86111.40
2022-09-18T05:13:37.752Z,86107.40
2022-09-18T05:16:07.562Z,86107.00
2022-09-18T05:18:37.443Z,86111.20
2022-09-18T05:21:07.716Z,86112.40
2022-09-18T05:23:37.337Z,86109.20
2022-09-18T05:26:06.547Z,86114.00
2022-09-18T05:28:35.775Z,86116.80
2022-09-18T05:31:05.692Z,86117.00
2022-09-18T05:33:35.114Z,86114.20
2022-09-18T05:36:07.571Z,86120.20
2022-09-18T05:38:37.156Z,86113.40
2022-09-18T05:41:07.793Z,86123.20
2022-09-18T05:43:39.765Z,86125.40
2022-09-18T05:46:08.896Z,86126.00
2022-09-18T05:48:38.355Z,86123.80
2022-09-18T05:51:07.907Z,86128.80
2022-09-18T05:53:37.211Z,86132.20
2022-09-18T05:56:06.741Z,86135.80
2022-09-18T05:58:36.350Z,86133.60
2022-09-18T06:01:07.457Z,86128.40
2022-09-18T06:03:37.005Z,86135.20
2022-09-18T06:06:06.417Z,86131.80
2022-09-18T06:08:37.174Z,86128.00
2022-09-18T06:11:07.198Z,86126.40
2022-09-18T06:13:36.176Z,86128.00
2022-09-18T06:16:05.616Z,86126.80
2022-09-18T06:18:35.090Z,86127.60
2022-09-18T06:21:04.375Z,86134.20
2022-09-18T06:23:33.645Z,86136.20
2022-09-18T06:26:07.860Z,86136.80
2022-09-18T06:28:38.778Z,86140.20
2022-09-18T06:31:08.154Z,86137.00
2022-09-18T06:33:37.652Z,86142.80
2022-09-18T06:36:09.931Z,86136.00
2022-09-18T06:38:39.121Z,86137.00
2022-09-18T06:41:08.363Z,86139.00
2022-09-18T06:43:37.881Z,86142.80
2022-09-18T06:46:08.877Z,86137.00
2022-09-18T06:48:37.953Z,86136.20
2022-09-18T06:51:08.018Z,86140.20
2022-09-18T06:53:37.680Z,86136.60
2022-09-18T06:56:06.864Z,86140.40
2022-09-18T06:58:36.159Z,86142.60
2022-09-18T07:01:05.850Z,86142.40
2022-09-18T07:03:35.144Z,86145.60
2022-09-18T07:06:04.421Z,86150.20
2022-09-18T07:08:33.926Z,86150.60
2022-09-18T07:11:04.034Z,86143.60
2022-09-18T07:13:35.549Z,86154.20
2022-09-18T07:16:05.330Z,86155.00
2022-09-18T07:18:35.340Z,86157.20
2022-09-18T07:21:04.623Z,86164.00
2022-09-18T07:23:35.215Z,86163.60
2022-09-18T07:26:06.766Z,86162.40
2022-09-18T07:28:36.244Z,86167.80
2022-09-18T07:31:07.859Z,86168.00
2022-09-18T07:33:37.049Z,86165.80
2022-09-18T07:36:07.879Z,86175.20
2022-09-18T07:38:37.175Z,86170.60
2022-09-18T07:41:06.903Z,86167.60
2022-09-18T07:43:36.253Z,86169.40
2022-09-18T07:46:05.878Z,86172.20
2022-09-18T07:48:35.956Z,86175.40
2022-09-18T07:51:07.073Z,86175.20
2022-09-18T07:53:38.645Z,86175.40
2022-09-18T07:56:13.008Z,86177.20
2022-09-18T07:58:42.398Z,86180.60
2022-09-18T08:01:11.974Z,86178.80
2022-09-18T08:03:41.735Z,86177.20
2022-09-18T08:06:11.145Z,86180.60
2022-09-18T08:08:40.380Z,86184.00
2022-09-18T08:11:09.515Z,86185.20
2022-09-18T08:13:38.815Z,86189.20
2022-09-18T08:16:08.757Z,86193.20
2022-09-18T08:18:40.465Z,86196.60
2022-09-18T08:21:10.854Z,86196.60
2022-09-18T08:23:40.422Z,86198.40
2022-09-18T08:26:10.123Z,86199.60
2022-09-18T08:28:39.926Z,86202.40
2022-09-18T08:31:09.489Z,86202.60
2022-09-18T08:33:38.635Z,86204.60
2022-09-18T08:36:08.504Z,86206.60
2022-09-18T08:38:38.860Z,86210.80
2022-09-18T08:41:41.560Z,86211.60
2022-09-18T08:44:29.947Z,86210.80
2022-09-18T08:47:48.755Z,86210.20
2022-09-18T08:50:29.646Z,86215.40
2022-09-18T08:53:13.870Z,86216.40
2022-09-18T08:55:50.770Z,86212.80
2022-09-18T08:58:39.393Z,86214.60
2022-09-18T09:01:21.285Z,86213.20
2022-09-18T09:04:29.501Z,86204.40
2022-09-18T09:07:35.353Z,86200.60
2022-09-18T09:10:36.408Z,86200.20
2022-09-18T09:13:58.337Z,86201.80
2022-09-18T09:16:30.617Z,86199.80
2022-09-18T09:19:32.494Z,86200.80
2022-09-18T09:23:02.991Z,86198.60
2022-09-18T09:26:01.271Z,86199.00
2022-09-18T09:28:48.693Z,86198.00
2022-09-18T09:31:24.359Z,86202.60
2022-09-18T09:34:15.382Z,86204.20
2022-09-18T09:36:49.815Z,86202.00
2022-09-18T09:39:44.470Z,86200.40
2022-09-18T09:42:44.469Z,86204.20
2022-09-18T09:45:39.833Z,86209.00
2022-09-18T09:48:45.402Z,86213.20
2022-09-18T09:52:09.726Z,86214.20
2022-09-18T09:54:39.219Z,86204.00
2022-09-18T09:57:26.423Z,86205.00
2022-09-18T10:00:16.360Z,86202.80
2022-09-18T10:03:24.226Z,86199.00
2022-09-18T10:06:20.494Z,86201.40
2022-09-18T10:09:32.175Z,86216.00
2022-09-18T10:12:43.501Z,86214.20
2022-09-18T10:15:41.741Z,86212.80
2022-09-18T10:18:47.235Z,86218.60
2022-09-18T10:21:19.193Z,86219.00
2022-09-18T10:24:00.629Z,86229.00
2022-09-18T10:26:42.299Z,86230.60
2022-09-18T10:29:14.749Z,86230.80
2022-09-18T10:31:58.853Z,86239.40
2022-09-18T10:34:52.186Z,86233.80
2022-09-18T10:37:30.401Z,86230.80
2022-09-18T10:40:02.488Z,86231.60
2022-09-18T10:42:38.027Z,86231.00
2022-09-18T10:45:23.762Z,86236.60
2022-09-18T10:48:15.116Z,86229.60
2022-09-18T10:51:04.599Z,86228.80
2022-09-18T10:53:36.661Z,86227.60
2022-09-18T10:56:18.450Z,86230.40
2022-09-18T10:58:48.049Z,86234.00
2022-09-18T11:01:17.630Z,86234.20
2022-09-18T11:04:01.473Z,86233.60
2022-09-18T11:06:35.568Z,86229.40
2022-09-18T11:09:11.637Z,86228.40
2022-09-18T11:11:52.780Z,86225.60
2022-09-18T11:14:40.714Z,86226.20
2022-09-18T11:17:31.679Z,86223.00
2022-09-18T11:20:05.063Z,86225.40
2022-09-18T11:22:45.549Z,86232.80
2022-09-18T11:25:28.665Z,86231.40
2022-09-18T11:28:01.692Z,86219.20
2022-09-18T11:30:35.860Z,86219.40
2022-09-18T11:33:30.884Z,86216.00
2022-09-18T11:36:12.460Z,86215.80
2022-09-18T11:38:48.317Z,86219.80
2022-09-18T11:41:37.600Z,86212.00
2022-09-18T11:44:18.366Z,86218.60
2022-09-18T11:47:46.952Z,86218.20
2022-09-18T11:50:27.510Z,86222.40
2022-09-18T11:53:05.559Z,86215.80
2022-09-18T11:55:41.313Z,86223.80
2022-09-18T11:58:17.029Z,86225.60
2022-09-18T12:00:55.678Z,86224.20
2022-09-18T12:03:35.603Z,86227.20
2022-09-18T12:06:15.956Z,86220.20
2022-09-18T12:09:11.795Z,86218.80
2022-09-18T12:11:58.169Z,86226.60
2022-09-18T12:14:30.515Z,86231.00
2022-09-18T12:17:28.582Z,86230.80
2022-09-18T12:20:05.266Z,86241.80
2022-09-18T12:23:00.286Z,86237.20
2022-09-18T12:25:49.141Z,86238.20
2022-09-18T12:28:41.971Z,86236.40
2022-09-18T12:31:53.458Z,86233.20
2022-09-18T12:35:02.171Z,86240.40
2022-09-18T12:38:23.482Z,86237.80
2022-09-18T12:41:04.960Z,86236.00
2022-09-18T12:44:10.544Z,86237.60
2022-09-18T12:47:02.723Z,86234.40
2022-09-18T12:50:12.082Z,86237.80
2022-09-18T12:53:25.074Z,86238.40
2022-09-18T12:56:03.337Z,86243.20
2022-09-18T12:58:59.258Z,86244.40
2022-09-18T13:01:59.393Z,86247.00
2022-09-18T13:04:48.240Z,86248.20
2022-09-18T13:07:46.238Z,86246.80
2022-09-18T13:10:40.739Z,86247.40
2022-09-18T13:13:30.061Z,86248.60
2022-09-18T13:16:16.922Z,86251.60
2022-09-18T13:18:51.588Z,86248.60
2022-09-18T13:21:43.145Z,86257.80
2022-09-18T13:24:26.219Z,86262.00
2022-09-18T13:26:57.068Z,86267.00
2022-09-18T13:29:57.655Z,86264.20
2022-09-18T13:32:36.735Z,86268.80
2022-09-18T13:35:21.083Z,86276.60
2022-09-18T13:38:04.674Z,86271.60
2022-09-18T13:40:36.989Z,86267.20
2022-09-18T13:43:48.569Z,86271.40
2022-09-18T13:46:42.871Z,86272.80
2022-09-18T13:49:29.855Z,86269.80
2022-09-18T13:52:37.049Z,86268.20
2022-09-18T13:55:15.555Z,86271.80
2022-09-18T13:57:46.330Z,86268.20
2022-09-18T14:00:25.224Z,86267.00
2022-09-18T14:03:14.413Z,86267.40
2022-09-18T14:05:46.811Z,86272.00
2022-09-18T14:08:25.254Z,86272.20
2022-09-18T14:11:15.330Z,86267.40
2022-09-18T14:13:52.789Z,86274.40
2022-09-18T14:16:22.358Z,86276.60
2022-09-18T14:18:51.337Z,86283.20
2022-09-18T14:21:20.388Z,86278.20
2022-09-18T14:23:49.382Z,86277.40
2022-09-18T14:26:41.418Z,86269.40
2022-09-18T14:29:18.262Z,86276.80
2022-09-18T14:31:57.425Z,86273.80
2022-09-18T14:34:45.455Z,86280.20
2022-09-18T14:37:36.714Z,86277.40
2022-09-18T14:40:24.873Z,86280.40
2022-09-18T14:42:54.004Z,86282.00
2022-09-18T14:45:30.836Z,86285.20
2022-09-18T14:48:20.665Z,86284.20
2022-09-18T14:51:03.445Z,86284.20
2022-09-18T14:53:45.475Z,86281.60
2022-09-18T14:56:34.494Z,86281.20
2022-09-18T14:59:09.660Z,86285.80
2022-09-18T15:01:41.488Z,86287.60
2022-09-18T15:04:21.413Z,86281.20
2022-09-18T15:06:57.530Z,86283.20
2022-09-18T15:09:35.896Z,86283.60
2022-09-18T15:12:05.500Z,86278.80
2022-09-18T15:14:45.549Z,86281.00
2022-09-18T15:17:29.434Z,86274.20
2022-09-18T15:20:15.644Z,86276.80
2022-09-18T15:22:45.571Z,86283.40
2022-09-18T15:25:21.947Z,86277.40
2022-09-18T15:27:52.937Z,86270.40
2022-09-18T15:30:26.822Z,86274.00
2022-09-18T15:33:14.109Z,86267.80
2022-09-18T15:35:45.999Z,86272.40
2022-09-18T15:38:27.366Z,86272.80
2022-09-18T15:40:57.274Z,86273.60
2022-09-18T15:43:42.234Z,86267.40
2022-09-18T15:46:25.362Z,86261.00
2022-09-18T15:49:00.530Z,86259.20
2022-09-18T15:51:35.782Z,86259.00
2022-09-18T15:54:14.242Z,86263.40
2022-09-18T15:57:03.817Z,86262.00
2022-09-18T15:59:41.991Z,86262.80
2022-09-18T16:02:32.871Z,86256.40
2022-09-18T16:05:14.790Z,86245.40
2022-09-18T16:07:58.964Z,86243.60
2022-09-18T16:10:40.573Z,86232.60
2022-09-18T16:13:47.451Z,86230.20
2022-09-18T16:16:24.839Z,86233.20
2022-09-18T16:19:09.306Z,86232.60
2022-09-18T16:21:46.204Z,86220.80
2022-09-18T16:24:31.102Z,86213.40
2022-09-18T16:27:13.679Z,86218.40
2022-09-18T16:29:43.012Z,86213.40
2022-09-18T16:32:15.732Z,86214.00
2022-09-18T16:34:47.871Z,86204.80
2022-09-18T16:37:18.481Z,86198.40
2022-09-18T16:39:47.681Z,86196.60
2022-09-18T16:42:20.556Z,86194.80
2022-09-18T16:44:49.954Z,86189.20
2022-09-18T16:47:20.518Z,86186.00
2022-09-18T16:49:53.921Z,86178.00
2022-09-18T16:52:23.629Z,86176.60
2022-09-18T16:54:52.738Z,86177.20
2022-09-18T16:57:24.800Z,86179.60
2022-09-18T16:59:55.428Z,86173.40
2022-09-18T17:02:26.177Z,86174.80
2022-09-18T17:04:55.437Z,86171.20
2022-09-18T17:07:24.727Z,86164.40
2022-09-18T17:09:54.014Z,86163.00
2022-09-18T17:12:23.449Z,86157.60
2022-09-18T17:14:53.427Z,86159.20
2022-09-18T17:17:22.958Z,86155.20
2022-09-18T17:19:52.019Z,86152.60
2022-09-18T17:22:22.746Z,86144.40
2022-09-18T17:24:55.129Z,86145.40
2022-09-18T17:27:26.300Z,86141.60
2022-09-18T17:29:55.592Z,86144.60
2022-09-18T17:32:24.985Z,86145.60
2022-09-18T17:34:54.145Z,86136.20
2022-09-18T17:37:23.314Z,86130.40
2022-09-18T17:39:52.700Z,86119.20
2022-09-18T17:42:22.112Z,86120.40
2022-09-18T17:44:52.886Z,86115.20
2022-09-18T17:47:22.553Z,86117.00
2022-09-18T17:49:51.996Z,86112.60
2022-09-18T17:52:21.305Z,86104.20
2022-09-18T17:54:50.526Z,86098.20
2022-09-18T17:57:19.688Z,86090.60
2022-09-18T17:59:49.496Z,86092.80
2022-09-18T18:02:18.891Z,86079.60
2022-09-18T18:04:48.022Z,86078.80
2022-09-18T18:07:17.379Z,86077.60
2022-09-18T18:09:46.747Z,86069.80
2022-09-18T18:12:16.188Z,86067.60
2022-09-18T18:14:45.476Z,86067.00
2022-09-18T18:17:15.525Z,86060.40
2022-09-18T18:19:44.864Z,86060.80
2022-09-18T18:22:14.117Z,86056.20
2022-09-18T18:24:43.205Z,86053.60
2022-09-18T18:27:12.796Z,86046.60
2022-09-18T18:29:43.368Z,86044.20
2022-09-18T18:32:13.692Z,86043.40
2022-09-18T18:34:42.943Z,86040.20
2022-09-18T18:37:12.350Z,86035.00
2022-09-18T18:39:41.713Z,86033.80
2022-09-18T18:42:11.288Z,86021.60
2022-09-18T18:44:41.278Z,86025.20
2022-09-18T18:47:11.039Z,86022.60
2022-09-18T18:49:40.598Z,86024.60
2022-09-18T18:52:10.519Z,86021.60
2022-09-18T18:54:40.566Z,86023.40
2022-09-18T18:57:10.226Z,86015.60
2022-09-18T18:59:41.663Z,86016.80
2022-09-18T19:02:12.161Z,86011.60
2022-09-18T19:04:42.523Z,86015.20
2022-09-18T19:07:12.020Z,86011.20
2022-09-18T19:09:41.315Z,86008.60
2022-09-18T19:12:10.340Z,86005.80
2022-09-18T19:14:39.824Z,86002.00
2022-09-18T19:17:11.025Z,86002.60
2022-09-18T19:19:40.067Z,85998.60
2022-09-18T19:22:18.174Z,85993.40
2022-09-18T19:24:47.493Z,85993.80
2022-09-18T19:27:16.641Z,85992.40
2022-09-18T19:29:45.970Z,85991.20
2022-09-18T19:32:16.191Z,85986.80
2022-09-18T19:34:45.395Z,85982.80
2022-09-18T19:37:18.230Z,85975.80
2022-09-18T19:39:50.044Z,85971.80
2022-09-18T19:42:19.494Z,85963.00
2022-09-18T19:44:53.412Z,85961.00
2022-09-18T19:47:49.676Z,85951.40
2022-09-18T19:50:31.201Z,85945.60
2022-09-18T19:53:01.496Z,85947.00
2022-09-18T19:55:30.844Z,85945.20
2022-09-18T19:58:01.043Z,85934.80
2022-09-18T20:00:32.011Z,85937.20
2022-09-18T20:03:02.171Z,85931.80
2022-09-18T20:05:34.199Z,85922.20
2022-09-18T20:08:04.886Z,85925.40
2022-09-18T20:10:39.457Z,85920.60
2022-09-18T20:13:11.778Z,85915.20
2022-09-18T20:15:41.131Z,85912.60
2022-09-18T20:18:10.497Z,85910.40
2022-09-18T20:20:40.110Z,85908.60
2022-09-18T20:23:09.465Z,85904.60
2022-09-18T20:25:40.298Z,85901.00
2022-09-18T20:28:09.530Z,85893.20
2022-09-18T20:30:40.024Z,85884.00
2022-09-18T20:33:09.827Z,85883.00
2022-09-18T20:35:39.385Z,85882.60
2022-09-18T20:38:08.967Z,85875.20
2022-09-18T20:40:39.460Z,85878.00
2022-09-18T20:43:09.399Z,85878.40
2022-09-18T20:45:38.964Z,85873.60
2022-09-18T20:48:08.126Z,85865.40
2022-09-18T20:50:39.667Z,85862.20
2022-09-18T20:53:09.316Z,85869.00
2022-09-18T20:55:38.325Z,85862.60
2022-09-18T20:58:07.556Z,85860.00
2022-09-18T21:00:38.719Z,85855.20
2022-09-18T21:03:08.416Z,85847.80
2022-09-18T21:05:38.067Z,85845.80
2022-09-18T21:08:07.426Z,85841.80
2022-09-18T21:10:47.673Z,85838.80
2022-09-18T21:13:18.105Z,85841.80
2022-09-18T21:15:50.097Z,85837.60
2022-09-18T21:18:19.875Z,85828.40
2022-09-18T21:20:49.085Z,85823.00
2022-09-18T21:23:36.900Z,85822.80
2022-09-18T21:26:17.513Z,85816.40
2022-09-18T21:28:47.583Z,85817.60
2022-09-18T21:31:16.826Z,85817.60
2022-09-18T21:33:46.709Z,85812.20
2022-09-18T21:36:16.253Z,85813.40
2022-09-18T21:38:46.436Z,85812.20
2022-09-18T21:41:16.407Z,85814.80
2022-09-18T21:43:49.431Z,85805.60
2022-09-18T21:46:22.715Z,85806.00
2022-09-18T21:48:57.818Z,85797.80
2022-09-18T21:51:27.041Z,85795.40
2022-09-18T21:53:57.320Z,85798.00
2022-09-18T21:56:26.801Z,85792.40
2022-09-18T21:58:57.139Z,85787.00
2022-09-18T22:01:33.448Z,85773.20
2022-09-18T22:04:03.375Z,85779.40
2022-09-18T22:06:42.732Z,85770.80
2022-09-18T22:09:20.282Z,85764.00
2022-09-18T22:11:51.206Z,85766.20
2022-09-18T22:14:25.767Z,85767.40
2022-09-18T22:16:55.322Z,85762.40
2022-09-18T22:19:25.175Z,85755.80
2022-09-18T22:21:54.324Z,85757.40
2022-09-18T22:24:27.194Z,85760.20
2022-09-18T22:27:00.347Z,85757.40
2022-09-18T22:29:35.528Z,85746.20
2022-09-18T22:32:05.495Z,85745.00
2022-09-18T22:34:36.398Z,85745.60
2022-09-18T22:37:06.388Z,85738.80
2022-09-18T22:39:36.037Z,85733.80
2022-09-18T22:42:05.336Z,85741.60
2022-09-18T22:44:34.521Z,85733.80
2022-09-18T22:47:03.983Z,85736.20
2022-09-18T22:49:33.834Z,85732.40
2022-09-18T22:52:03.125Z,85734.60
2022-09-18T22:54:32.343Z,85727.60
2022-09-18T22:57:01.750Z,85729.40
2022-09-18T22:59:30.970Z,85717.20
2022-09-18T23:02:06.891Z,85721.40
2022-09-18T23:04:37.333Z,85717.20
2022-09-18T23:07:06.985Z,85714.60
2022-09-18T23:09:36.671Z,85709.60
2022-09-18T23:12:06.465Z,85707.00
2022-09-18T23:14:36.035Z,85705.60
2022-09-18T23:17:05.299Z,85708.80
2022-09-18T23:19:36.541Z,85702.40
2022-09-18T23:22:06.332Z,85694.80
2022-09-18T23:24:35.375Z,85696.40
2022-09-18T23:27:04.735Z,85697.40
2022-09-18T23:29:34.324Z,85699.40
2022-09-18T23:32:05.371Z,85691.80
2022-09-18T23:34:34.764Z,85697.40
2022-09-18T23:37:04.178Z,85694.80
2022-09-18T23:39:36.234Z,85691.00
2022-09-18T23:42:06.788Z,85693.40
2022-09-18T23:44:36.098Z,85695.80
2022-09-18T23:47:05.671Z,85692.40
2022-09-18T23:49:34.913Z,85695.60
2022-09-18T23:52:05.780Z,85693.60
2022-09-18T23:54:35.226Z,85695.40
2022-09-18T23:57:04.339Z,85683.40
2022-09-18T23:59:33.563Z,85694.80
